Last 48 Hours

Las Positas

15 Minute Data | America/Los_Angeles
as of 8/31/26 10:44 PM PDT
Date & Time Temp (°F) RH (%) Dew Pt (°F) Wet Bulb (°F) Wind Dir (°) Wind Spd (mph) Wind Gust (mph) Wind Gst Dir (°) Latest Rain (In) Daily Rain (In) Daily Min Temp (°F) Daily Max Temp (°F) Daily Max Wind (mph)
8/31/26 - 2230 58.8 70 49.0 53.9 SW | 224 7.9 17.3 WSW | 240 0.00 0.00 55.4 67.9 24.1
8/31/26 - 2215 58.7 70 48.9 53.8 SW | 230 7.7 16.0 SW | 235 0.00 0.00 55.4 67.9 24.1
8/31/26 - 2200 58.8 70 49.2 54.1 SW | 234 5.6 14.0 WSW | 244 0.00 0.00 55.4 67.9 24.1
8/31/26 - 2145 58.8 70 49.0 54.0 SW | 229 5.8 13.6 WSW | 242 0.00 0.00 55.4 67.9 24.1
8/31/26 - 2130 58.8 70 49.1 54.0 SW | 233 6.8 16.2 SW | 220 0.00 0.00 55.4 67.9 24.1
8/31/26 - 2115 59.0 70 49.2 54.2 SW | 230 7.9 15.6 SW | 224 0.00 0.00 55.4 67.9 24.1
8/31/26 - 2100 59.0 70 49.3 54.2 SW | 227 7.0 15.1 WSW | 247 0.00 0.00 55.4 67.9 24.1
8/31/26 - 2045 59.0 70 49.3 54.2 WSW | 238 6.6 15.8 WSW | 239 0.00 0.00 55.4 67.9 24.1
8/31/26 - 2030 59.2 71 49.7 54.5 WSW | 246 6.7 15.1 W | 259 0.00 0.00 55.4 67.9 24.1
8/31/26 - 2015 59.6 71 50.1 54.9 WSW | 243 7.3 17.5 SSW | 211 0.00 0.00 55.4 67.9 24.1
8/31/26 - 2000 59.9 70 50.3 55.1 WSW | 244 9.5 20.6 SW | 219 0.00 0.00 55.4 67.9 24.1
8/31/26 - 1945 60.1 69 50.1 55.1 WSW | 240 9.6 18.2 WSW | 249 0.00 0.00 55.4 67.9 24.1
8/31/26 - 1930 60.6 68 50.1 55.2 W | 262 9.2 18.2 WNW | 284 0.00 0.00 55.4 67.9 24.1
8/31/26 - 1915 61.2 67 50.2 55.5 WSW | 258 8.4 15.6 W | 260 0.00 0.00 55.4 67.9 24.1
8/31/26 - 1900 62.0 65 50.3 55.9 WSW | 252 9.1 18.8 SW | 225 0.00 0.00 55.4 67.9 24.1
8/31/26 - 1845 62.4 65 50.3 56.0 WSW | 253 9.8 18.4 W | 270 0.00 0.00 55.4 67.9 24.1
8/31/26 - 1830 62.8 63 50.2 56.1 WSW | 254 9.7 20.2 W | 264 0.00 0.00 55.4 67.9 24.1
8/31/26 - 1815 63.3 62 50.1 56.2 WSW | 255 10.8 22.8 WNW | 292 0.00 0.00 55.4 67.9 24.1
8/31/26 - 1800 63.9 61 50.3 56.5 W | 265 13.2 24.1 W | 280 0.00 0.00 55.4 67.9 24.1
8/31/26 - 1745 64.8 59 50.3 56.8 W | 259 10.8 23.7 W | 266 0.00 0.00 55.4 67.9 23.7
8/31/26 - 1730 64.5 61 50.9 57.1 WSW | 253 11.8 22.6 WSW | 257 0.00 0.00 55.4 67.9 23.4
8/31/26 - 1715 65.7 59 50.9 57.4 W | 270 11.6 23.4 W | 275 0.00 0.00 55.4 67.9 23.4
8/31/26 - 1700 65.3 59 50.7 57.2 W | 275 11.5 23.4 WSW | 254 0.00 0.00 55.4 67.9 23.4
8/31/26 - 1645 66.5 57 50.6 57.5 W | 272 9.8 20.2 W | 281 0.00 0.00 55.4 67.9 23.4
8/31/26 - 1630 66.7 57 50.8 57.7 W | 269 10.6 21.9 W | 275 0.00 0.00 55.4 67.9 23.4
8/31/26 - 1615 66.2 57 50.6 57.4 W | 281 10.4 23.4 SW | 222 0.00 0.00 55.4 67.9 23.4
8/31/26 - 1600 66.6 57 51.0 57.8 W | 274 10.4 21.7 WNW | 292 0.00 0.00 55.4 67.9 23.2
8/31/26 - 1545 66.7 56 50.8 57.7 W | 265 10.5 21.5 WSW | 255 0.00 0.00 55.4 67.9 23.2
8/31/26 - 1530 67.2 56 50.8 57.9 WSW | 249 9.8 19.7 SW | 233 0.00 0.00 55.4 67.9 23.2
8/31/26 - 1515 66.5 57 50.7 57.6 W | 261 10.9 20.4 WSW | 252 0.00 0.00 55.4 67.4 23.2
8/31/26 - 1500 66.2 58 50.8 57.5 W | 269 11.2 23.2 WNW | 295 0.00 0.00 55.4 67.4 23.2
8/31/26 - 1445 66.8 56 50.7 57.7 W | 260 9.6 23.0 WSW | 240 0.00 0.00 55.4 67.4 23.0
8/31/26 - 1430 65.9 59 51.2 57.7 W | 260 10.2 20.8 WNW | 289 0.00 0.00 55.4 66.9 22.6
8/31/26 - 1415 65.9 59 51.1 57.6 WSW | 258 11.1 20.6 WSW | 246 0.00 0.00 55.4 66.8 22.6
8/31/26 - 1400 66.0 58 50.8 57.5 WSW | 238 10.7 20.8 SW | 231 0.00 0.00 55.4 66.8 22.6
8/31/26 - 1345 66.3 57 50.7 57.5 WSW | 256 9.5 18.4 WSW | 245 0.00 0.00 55.4 66.8 22.6
8/31/26 - 1330 65.4 59 50.5 57.1 WSW | 253 9.5 19.5 WSW | 256 0.00 0.00 55.4 66.1 22.6
8/31/26 - 1315 65.1 59 50.6 57.1 W | 259 10.5 22.6 W | 279 0.00 0.00 55.4 65.6 22.6
8/31/26 - 1300 64.8 60 50.8 57.1 WSW | 256 10.0 21.5 W | 266 0.00 0.00 55.4 65.6 21.5
8/31/26 - 1245 64.5 61 50.7 56.9 WSW | 257 9.3 18.0 W | 267 0.00 0.00 55.4 65.1 19.3
8/31/26 - 1230 63.5 64 51.0 56.8 W | 266 9.2 17.5 WNW | 297 0.00 0.00 55.4 64.5 19.3
8/31/26 - 1215 64.0 62 51.0 57.0 WSW | 244 8.7 17.5 WSW | 242 0.00 0.00 55.4 64.5 19.3
8/31/26 - 1200 63.4 63 50.5 56.5 WSW | 244 9.1 17.5 W | 265 0.00 0.00 55.4 64.5 19.3
8/31/26 - 1145 63.4 62 50.3 56.4 WSW | 242 9.6 18.2 WNW | 287 0.00 0.00 55.4 64.5 19.3
8/31/26 - 1130 63.5 61 49.9 56.1 SW | 234 8.7 17.8 WSW | 250 0.00 0.00 55.4 64.5 19.3
8/31/26 - 1115 63.7 60 49.7 56.1 SW | 223 8.3 19.3 SW | 228 0.00 0.00 55.4 64.5 19.3
8/31/26 - 1100 62.9 62 49.7 55.8 SW | 223 8.6 18.8 SW | 227 0.00 0.00 55.4 63.6 18.8
8/31/26 - 1045 62.4 63 49.5 55.6 SW | 236 8.7 14.7 SW | 215 0.00 0.00 55.4 63.2 17.8
8/31/26 - 1030 61.6 65 49.6 55.3 SW | 236 8.2 15.1 WSW | 246 0.00 0.00 55.4 62.0 17.8
8/31/26 - 1015 60.8 67 49.7 55.1 SW | 230 8.3 15.3 WSW | 246 0.00 0.00 55.4 61.1 17.8
8/31/26 - 1000 60.4 68 49.7 55.0 WSW | 237 7.8 15.3 WSW | 250 0.00 0.00 55.4 60.7 17.8
8/31/26 - 0945 60.2 68 49.7 54.9 SW | 226 6.2 13.8 W | 275 0.00 0.00 55.4 60.7 17.8
8/31/26 - 0930 59.9 69 49.7 54.8 SW | 224 6.5 14.2 WSW | 237 0.00 0.00 55.4 60.1 17.8
8/31/26 - 0915 59.4 71 50.0 54.8 SW | 236 6.1 12.3 SW | 232 0.00 0.00 55.4 59.7 17.8
8/31/26 - 0900 59.3 72 50.2 54.8 SW | 218 5.4 10.7 SW | 227 0.00 0.00 55.4 59.6 17.8
8/31/26 - 0845 58.5 74 50.2 54.6 SW | 220 6.6 11.6 SW | 219 0.00 0.00 55.4 58.8 17.8
8/31/26 - 0830 58.5 74 50.3 54.6 SW | 234 5.5 11.6 WSW | 244 0.00 0.00 55.4 58.7 17.8
8/31/26 - 0815 58.3 75 50.3 54.5 WSW | 238 4.7 11.8 WSW | 240 0.00 0.00 55.4 58.4 17.8
8/31/26 - 0800 57.8 76 50.3 54.3 WSW | 240 5.2 9.9 WSW | 239 0.00 0.00 55.4 58.1 17.8
8/31/26 - 0745 57.6 77 50.4 54.4 WSW | 248 4.9 10.1 W | 274 0.00 0.00 55.4 57.7 17.8
8/31/26 - 0730 57.3 78 50.5 54.3 SW | 235 5.9 14.5 SW | 230 0.00 0.00 55.4 57.6 17.8
8/31/26 - 0715 57.1 79 50.6 54.2 WSW | 245 6.1 12.9 WSW | 242 0.00 0.00 55.4 57.2 17.8
8/31/26 - 0700 56.9 79 50.6 54.2 WSW | 251 6.9 16.0 W | 272 0.00 0.00 55.4 57.1 17.8
8/31/26 - 0645 56.8 80 50.6 54.1 WSW | 256 7.7 16.0 W | 276 0.00 0.00 55.4 56.9 17.8
8/31/26 - 0630 56.6 80 50.5 54.0 W | 265 7.6 14.7 WNW | 293 0.00 0.00 55.4 56.8 17.8
8/31/26 - 0615 56.3 80 50.2 53.7 W | 260 8.2 15.8 WNW | 298 0.00 0.00 55.4 56.8 17.8
8/31/26 - 0600 56.3 80 50.4 53.8 WSW | 249 8.3 17.8 W | 264 0.00 0.00 55.4 56.8 17.8
8/31/26 - 0545 56.6 82 51.2 54.4 WSW | 257 6.0 14.7 W | 270 0.00 0.00 55.4 56.8 16.9
8/31/26 - 0530 56.5 84 51.8 54.8 W | 259 6.4 16.9 SW | 217 0.00 0.00 55.4 56.8 16.9
8/31/26 - 0515 56.6 85 52.1 55.0 W | 260 5.5 13.6 WNW | 282 0.00 0.00 55.4 56.8 14.7
8/31/26 - 0500 56.3 86 52.1 54.9 W | 269 6.8 14.7 WNW | 288 0.00 0.00 55.4 56.6 14.7
8/31/26 - 0445 56.0 86 52.0 54.7 W | 274 6.9 14.2 WNW | 290 0.00 0.00 55.4 56.1 14.2
8/31/26 - 0430 55.8 86 51.7 54.4 W | 279 6.2 13.2 W | 266 0.00 0.00 55.4 56.0 13.2
8/31/26 - 0415 55.5 86 51.4 54.1 W | 280 5.2 13.2 W | 266 0.00 0.00 55.4 56.0 13.2
8/31/26 - 0400 55.4 86 51.4 54.1 WNW | 299 5.8 11.4 NW | 308 0.00 0.00 55.4 56.0 13.2
8/31/26 - 0345 55.6 86 51.7 54.3 WNW | 298 5.0 10.3 WNW | 282 0.00 0.00 55.4 56.0 13.2
8/31/26 - 0330 55.7 86 51.7 54.4 WNW | 303 3.6 11.6 NW | 306 0.00 0.00 55.6 56.0 13.2
8/31/26 - 0315 55.7 86 51.7 54.4 NW | 310 4.6 11.6 NW | 312 0.00 0.00 55.6 56.0 13.2
8/31/26 - 0300 55.7 86 51.7 54.4 NW | 305 4.5 11.4 NW | 311 0.00 0.00 55.7 56.0 13.2
8/31/26 - 0245 55.8 86 51.7 54.4 WNW | 297 6.2 13.2 W | 277 0.00 0.00 55.7 56.0 13.2
8/31/26 - 0230 55.8 86 51.7 54.4 WNW | 302 5.4 12.7 NW | 305 0.00 0.00 55.8 56.0 12.7
8/31/26 - 0215 55.9 86 51.7 54.5 NW | 314 4.8 10.7 NW | 310 0.00 0.00 55.8 56.0 12.5
8/31/26 - 0200 55.9 86 51.6 54.4 WNW | 298 4.9 12.5 NW | 312 0.00 0.00 55.8 56.0 12.5
8/31/26 - 0145 55.9 85 51.6 54.4 WNW | 298 3.9 9.6 W | 273 0.00 0.00 55.8 56.0 11.0
8/31/26 - 0130 55.8 86 51.6 54.3 NW | 307 4.5 11.0 NW | 318 0.00 0.00 55.8 56.0 11.0
8/31/26 - 0115 55.9 85 51.5 54.3 WNW | 301 4.9 10.5 WNW | 302 0.00 0.00 55.8 56.0 10.5
8/31/26 - 0100 56.0 84 51.3 54.3 WNW | 302 4.7 12.1 WNW | 292 0.00 0.00 53.7 81.9 19.3
8/31/26 - 0045 56.4 82 51.0 54.2 WNW | 302 5.1 12.5 WNW | 286 0.00 0.00 53.7 81.9 19.3
8/31/26 - 0030 57.1 78 50.5 54.2 WNW | 295 5.0 10.5 W | 274 0.00 0.00 53.7 81.9 19.3
8/31/26 - 0015 57.7 76 50.2 54.2 W | 278 4.5 13.2 WNW | 294 0.00 0.00 53.7 81.9 19.3
8/31/26 - 0000 58.2 74 49.8 54.2 W | 278 3.3 9.6 WSW | 242 0.00 0.00 53.7 81.9 19.3
8/30/26 - 2345 58.0 73 49.4 53.9 WNW | 290 3.8 9.0 W | 275 0.00 0.00 53.7 81.9 19.3
8/30/26 - 2330 58.1 73 49.5 54.0 NW | 304 2.3 7.5 NNW | 333 0.00 0.00 53.7 81.9 19.3
8/30/26 - 2315 58.4 73 49.7 54.2 NW | 321 3.4 7.2 NW | 312 0.00 0.00 53.7 81.9 19.3
8/30/26 - 2300 58.8 72 49.9 54.5 NW | 318 3.4 8.8 NNW | 332 0.00 0.00 53.7 81.9 19.3
8/30/26 - 2245 59.4 70 49.8 54.6 NNW | 329 2.4 8.1 NNW | 348 0.00 0.00 53.7 81.9 19.3
8/30/26 - 2230 59.8 70 49.8 54.8 WNW | 288 1.2 5.7 W | 261 0.00 0.00 53.7 81.9 19.3
8/30/26 - 2215 59.9 69 49.6 54.7 NW | 313 1.4 6.8 NW | 305 0.00 0.00 53.7 81.9 19.3
8/30/26 - 2200 60.3 68 49.6 54.8 WNW | 286 2.7 8.6 W | 276 0.00 0.00 53.7 81.9 19.3
8/30/26 - 2145 60.8 66 49.3 54.8 W | 281 4.7 10.7 NW | 316 0.00 0.00 53.7 81.9 19.3
8/30/26 - 2130 61.5 64 49.2 55.1 W | 279 4.3 10.1 WNW | 299 0.00 0.00 53.7 81.9 19.3
8/30/26 - 2115 62.4 62 49.0 55.3 W | 279 4.9 12.3 WNW | 292 0.00 0.00 53.7 81.9 19.3
8/30/26 - 2100 62.8 61 49.0 55.4 WNW | 289 5.6 13.4 NW | 320 0.00 0.00 53.7 81.9 19.3
8/30/26 - 2045 63.6 59 49.1 55.7 WSW | 247 5.5 11.8 WSW | 245 0.00 0.00 53.7 81.9 19.3
8/30/26 - 2030 64.3 57 48.6 55.7 WSW | 251 4.9 11.4 SW | 229 0.00 0.00 53.7 81.9 19.3
8/30/26 - 2015 65.4 54 48.2 55.8 SW | 235 6.7 13.4 WSW | 240 0.00 0.00 53.7 81.9 19.3
8/30/26 - 2000 66.2 52 48.3 56.1 WSW | 241 6.6 13.8 WSW | 246 0.00 0.00 53.7 81.9 19.3
8/30/26 - 1945 67.1 49 47.5 56.0 W | 273 6.7 16.7 W | 277 0.00 0.00 53.7 81.9 19.3
8/30/26 - 1930 68.6 47 47.9 56.6 W | 277 7.9 13.6 WNW | 289 0.00 0.00 53.7 81.9 19.3
8/30/26 - 1915 70.0 45 48.0 57.1 W | 275 8.9 19.3 WNW | 289 0.00 0.00 53.7 81.9 19.3
8/30/26 - 1900 71.8 43 48.3 57.8 W | 275 8.5 18.0 W | 278 0.00 0.00 53.7 81.9 18.0
8/30/26 - 1845 73.4 42 49.2 58.7 W | 276 7.3 15.1 W | 277 0.00 0.00 53.7 81.9 18.0
8/30/26 - 1830 74.0 43 50.2 59.4 W | 275 9.0 18.0 W | 280 0.00 0.00 53.7 81.9 18.0
8/30/26 - 1815 75.2 41 50.2 59.7 W | 270 8.2 16.0 W | 279 0.00 0.00 53.7 81.9 17.1
8/30/26 - 1800 76.2 38 49.0 59.2 W | 277 9.1 16.7 WNW | 285 0.00 0.00 53.7 81.9 17.1
8/30/26 - 1745 77.1 37 48.9 59.4 WNW | 285 7.6 17.1 WNW | 291 0.00 0.00 53.7 81.9 17.1
8/30/26 - 1730 78.1 37 50.0 60.2 WNW | 294 7.2 14.2 WNW | 286 0.00 0.00 53.7 81.9 15.3
8/30/26 - 1715 79.1 37 50.5 60.7 W | 274 8.0 15.3 WNW | 293 0.00 0.00 53.7 81.9 15.3
8/30/26 - 1700 80.1 36 50.8 61.0 W | 277 7.8 14.9 WNW | 295 0.00 0.00 53.7 81.9 14.9
8/30/26 - 1645 80.9 35 50.5 61.1 W | 278 6.0 12.3 WNW | 284 0.00 0.00 53.7 81.9 13.8
8/30/26 - 1630 80.7 34 49.7 60.6 WNW | 287 6.9 12.5 WNW | 293 0.00 0.00 53.7 81.9 13.8
8/30/26 - 1615 80.6 33 49.1 60.3 WNW | 286 6.3 12.9 WNW | 298 0.00 0.00 53.7 81.9 13.8
8/30/26 - 1600 81.3 33 49.1 60.5 W | 270 6.1 13.8 WNW | 290 0.00 0.00 53.7 81.9 13.8
8/30/26 - 1545 81.2 32 48.2 60.0 W | 271 5.3 10.1 W | 281 0.00 0.00 53.7 81.8 13.6
8/30/26 - 1530 80.9 31 47.7 59.7 W | 273 5.9 12.7 W | 279 0.00 0.00 53.7 81.6 13.6
8/30/26 - 1515 80.6 32 48.3 59.9 WSW | 254 5.9 13.4 WSW | 242 0.00 0.00 53.7 81.3 13.6
8/30/26 - 1500 80.3 33 48.8 60.1 W | 261 5.3 12.7 W | 274 0.00 0.00 53.7 81.1 13.6
8/30/26 - 1445 80.7 32 48.6 60.1 WSW | 250 4.1 12.7 W | 276 0.00 0.00 53.7 81.1 13.6
8/30/26 - 1430 79.4 34 48.6 59.8 WSW | 248 4.7 11.6 SSW | 212 0.00 0.00 53.7 80.8 13.6
8/30/26 - 1415 78.3 36 48.9 59.7 W | 279 5.9 13.6 WSW | 247 0.00 0.00 53.7 78.9 13.6
8/30/26 - 1400 78.1 36 48.9 59.7 W | 263 5.0 10.3 WSW | 241 0.00 0.00 53.7 78.9 12.9
8/30/26 - 1345 78.4 35 48.8 59.7 WSW | 257 4.6 11.6 WNW | 293 0.00 0.00 53.7 78.9 12.9
8/30/26 - 1330 77.4 36 48.7 59.4 WSW | 253 5.0 10.7 WNW | 298 0.00 0.00 53.7 78.1 12.9
8/30/26 - 1315 76.7 38 48.9 59.3 WSW | 241 4.7 10.5 SW | 234 0.00 0.00 53.7 77.7 12.9
8/30/26 - 1300 75.9 39 49.1 59.3 SW | 236 5.3 12.5 WSW | 248 0.00 0.00 53.7 76.3 12.9
8/30/26 - 1245 75.6 40 49.5 59.4 SW | 225 4.1 9.9 WSW | 249 0.00 0.00 53.7 76.2 12.9
8/30/26 - 1230 74.1 42 49.6 59.0 WSW | 241 3.9 9.6 SW | 232 0.00 0.00 53.7 75.5 12.9
8/30/26 - 1215 73.4 43 49.6 58.9 WSW | 257 4.9 11.8 WNW | 287 0.00 0.00 53.7 73.9 12.9
8/30/26 - 1200 73.1 44 49.7 58.9 WSW | 237 4.0 9.4 WSW | 256 0.00 0.00 53.7 73.9 12.9
8/30/26 - 1145 71.5 47 50.1 58.7 W | 279 3.9 10.3 WSW | 258 0.00 0.00 53.7 72.6 12.9
8/30/26 - 1130 70.5 49 50.3 58.5 WSW | 258 3.8 11.2 SW | 229 0.00 0.00 53.7 71.0 12.9
8/30/26 - 1115 69.7 49 50.0 58.1 W | 269 4.3 11.8 WSW | 250 0.00 0.00 53.7 70.2 12.9
8/30/26 - 1100 68.8 51 49.8 57.8 W | 264 3.7 9.0 NNW | 332 0.00 0.00 53.7 70.1 12.9
8/30/26 - 1045 67.6 53 50.1 57.6 WSW | 256 4.3 9.9 WSW | 242 0.00 0.00 53.7 68.4 12.9
8/30/26 - 1030 66.9 55 50.2 57.4 W | 263 3.9 10.1 W | 278 0.00 0.00 53.7 67.5 12.9
8/30/26 - 1015 65.9 57 50.3 57.2 SW | 234 3.6 8.8 WSW | 241 0.00 0.00 53.7 66.5 12.9
8/30/26 - 1000 64.4 61 50.7 56.9 WSW | 247 3.8 9.2 W | 261 0.00 0.00 53.7 65.2 12.9
8/30/26 - 0945 63.0 64 50.9 56.6 W | 270 4.4 9.0 WNW | 302 0.00 0.00 53.7 63.6 12.9
8/30/26 - 0930 61.7 69 51.3 56.4 W | 272 5.1 11.0 NW | 305 0.00 0.00 53.7 62.8 12.9
8/30/26 - 0915 61.1 71 51.6 56.3 WNW | 287 5.8 11.8 NW | 306 0.00 0.00 53.7 61.3 12.9
8/30/26 - 0900 60.6 73 51.9 56.4 WNW | 297 4.8 9.4 NW | 324 0.00 0.00 53.7 60.8 12.9
8/30/26 - 0845 59.8 75 51.9 56.1 WNW | 282 5.2 12.5 WNW | 288 0.00 0.00 53.7 60.2 12.9
8/30/26 - 0830 59.1 77 52.0 55.9 WSW | 254 5.0 12.3 NW | 306 0.00 0.00 53.7 59.6 12.9
8/30/26 - 0815 58.2 80 52.1 55.6 WNW | 283 5.2 11.8 WNW | 288 0.00 0.00 53.7 58.6 12.9
8/30/26 - 0800 57.2 83 52.0 55.2 NW | 319 5.4 12.9 NW | 319 0.00 0.00 53.7 57.7 12.9
8/30/26 - 0745 56.4 85 51.8 54.7 NW | 320 4.7 12.1 NW | 326 0.00 0.00 53.7 57.4 12.7
8/30/26 - 0730 55.6 85 51.2 54.1 NW | 319 5.0 12.7 NW | 323 0.00 0.00 53.7 57.4 12.7
8/30/26 - 0715 55.2 84 50.5 53.4 NW | 313 6.1 12.3 NNW | 330 0.00 0.00 53.7 57.4 12.3
8/30/26 - 0700 54.2 86 49.9 52.6 NW | 320 4.5 11.4 NW | 315 0.00 0.00 53.7 57.4 11.4
8/30/26 - 0645 54.3 84 49.7 52.5 NNW | 330 3.5 7.2 NNW | 335 0.00 0.00 53.8 57.4 10.5
8/30/26 - 0630 54.7 84 50.0 52.9 NW | 308 3.4 8.3 WNW | 303 0.00 0.00 54.0 57.4 10.5
8/30/26 - 0615 54.8 84 50.1 53.0 NW | 309 3.0 8.1 NW | 326 0.00 0.00 54.0 57.4 10.5
8/30/26 - 0600 55.1 84 50.6 53.4 NW | 312 4.7 9.9 WNW | 300 0.00 0.00 54.0 57.4 10.5
8/30/26 - 0545 54.4 86 50.4 53.0 NW | 322 2.4 6.8 NW | 325 0.00 0.00 54.0 57.4 10.5
8/30/26 - 0530 54.2 87 50.3 52.9 NNW | 328 5.0 8.1 NW | 317 0.00 0.00 54.0 57.4 10.5
8/30/26 - 0515 54.1 86 50.1 52.7 NNW | 329 4.3 8.8 SE | 141 0.00 0.00 54.0 57.4 10.5
8/30/26 - 0500 54.2 86 50.1 52.8 NNW | 328 4.8 7.9 NNW | 348 0.00 0.00 54.1 57.4 10.5
8/30/26 - 0445 54.3 85 50.0 52.8 NNW | 329 3.7 10.5 NNW | 331 0.00 0.00 54.1 57.4 10.5
8/30/26 - 0430 54.6 85 50.3 53.0 NNW | 328 4.6 8.8 NNW | 331 0.00 0.00 54.5 57.4 10.3
8/30/26 - 0415 55.3 84 50.4 53.4 NW | 321 5.1 8.8 NW | 316 0.00 0.00 54.8 57.4 10.3
8/30/26 - 0400 55.4 83 50.4 53.5 WNW | 300 4.4 8.6 WNW | 285 0.00 0.00 55.4 57.4 10.3
8/30/26 - 0345 55.8 82 50.3 53.5 WNW | 296 3.6 8.1 WNW | 298 0.00 0.00 55.6 57.4 10.3
8/30/26 - 0330 56.0 81 50.4 53.6 NW | 317 3.0 7.5 NW | 320 0.00 0.00 55.7 57.4 10.3
8/30/26 - 0315 56.1 81 50.3 53.7 WNW | 301 4.0 8.8 NW | 312 0.00 0.00 55.7 57.4 10.3
8/30/26 - 0300 56.4 80 50.5 53.9 WNW | 288 2.1 7.7 NW | 312 0.00 0.00 55.7 57.4 10.3
8/30/26 - 0245 56.3 81 50.4 53.8 WNW | 290 2.0 5.9 NNW | 345 0.00 0.00 55.7 57.4 10.3
8/30/26 - 0230 55.9 81 50.2 53.6 NW | 316 3.0 7.9 NW | 311 0.00 0.00 55.7 57.4 10.3
8/30/26 - 0215 56.1 80 50.2 53.6 NW | 318 3.4 8.1 NW | 304 0.00 0.00 55.7 57.4 10.3
8/30/26 - 0200 56.5 80 50.5 53.9 NW | 326 2.5 7.0 NW | 319 0.00 0.00 56.3 57.4 10.3
8/30/26 - 0145 56.8 80 50.7 54.2 NW | 304 2.8 6.4 NW | 312 0.00 0.00 56.6 57.4 10.3
8/30/26 - 0130 57.0 80 51.0 54.5 WNW | 302 3.3 7.2 WNW | 286 0.00 0.00 57.0 57.4 10.3
8/30/26 - 0115 57.3 80 51.2 54.7 WNW | 291 5.4 10.3 NW | 306 0.00 0.00 57.2 57.4 10.3
8/30/26 - 0100 57.7 79 51.1 54.8 WNW | 288 4.8 10.1 WNW | 295 0.00 0.00 56.2 81.8 19.7
8/30/26 - 0045 57.8 79 51.2 54.9 WNW | 289 6.3 11.6 WNW | 301 0.00 0.00 56.2 81.8 19.7
8/30/26 - 0030 58.3 77 51.0 54.9 NW | 304 5.2 10.5 WNW | 299 0.00 0.00 56.2 81.8 19.7
8/30/26 - 0015 58.4 77 51.2 55.1 NW | 304 5.9 12.9 NW | 310 0.00 0.00 56.2 81.8 19.7
8/30/26 - 0000 58.6 77 51.3 55.3 NW | 316 7.1 14.0 WNW | 285 0.00 0.00 56.2 81.8 19.7
8/29/26 - 2345 58.5 78 51.5 55.3 NW | 313 5.6 12.3 NW | 320 0.00 0.00 56.2 81.8 19.7
8/29/26 - 2330 58.7 76 51.1 55.2 NW | 314 5.6 12.9 NW | 305 0.00 0.00 56.2 81.8 19.7
8/29/26 - 2315 58.9 74 50.6 55.0 WNW | 296 3.8 12.5 WNW | 292 0.00 0.00 56.2 81.8 19.7
8/29/26 - 2300 58.9 73 50.4 54.8 WNW | 296 4.2 12.5 NW | 311 0.00 0.00 56.2 81.8 19.7
8/29/26 - 2245 59.0 71 49.9 54.5 WNW | 298 5.0 10.5 NW | 322 0.00 0.00 56.2 81.8 19.7
8/29/26 - 2230 59.4 69 49.4 54.4 NW | 314 4.0 8.6 WNW | 302 0.00 0.00 56.2 81.8 19.7
Max 81.3 87 52.1 61.1 - 13.2 24.1 - 0.00 0.00 57.2 81.9 24.1
Avg 62.7 66 50.2 55.8 - 6.2 13.5 - 0.00 - - - -
Min 54.1 31 47.5 52.5 - 1.2 5.7 - 0.00 0.00 53.7 56.0 10.3
Total - - - - - - - - 0.00 - - - -